createdAt,value
2022-10-11T00:01:43.697Z,5.90
2022-10-11T00:04:10.408Z,4.80
2022-10-11T00:06:43.319Z,4.70
2022-10-11T00:09:16.134Z,4.80
2022-10-11T00:11:42.866Z,3.80
2022-10-11T00:14:09.659Z,4.80
2022-10-11T00:16:38.681Z,6.40
2022-10-11T00:19:05.299Z,5.20
2022-10-11T00:21:31.947Z,5.10
2022-10-11T00:23:58.500Z,7.10
2022-10-11T00:26:25.075Z,5.60
2022-10-11T00:28:52.765Z,4.70
2022-10-11T00:31:19.627Z,5.80
2022-10-11T00:33:46.514Z,5.10
2022-10-11T00:36:14.883Z,5.00
2022-10-11T00:38:41.462Z,5.70
2022-10-11T00:41:08.158Z,5.20
2022-10-11T00:43:35.303Z,8.70
2022-10-11T00:46:24.527Z,8.60
2022-10-11T00:48:56.958Z,5.20
2022-10-11T00:51:47.111Z,5.30
2022-10-11T00:54:17.766Z,5.50
2022-10-11T00:56:49.443Z,5.90
2022-10-11T00:59:26.418Z,4.80
2022-10-11T01:01:53.483Z,4.50
2022-10-11T01:04:20.851Z,6.10
2022-10-11T01:06:48.898Z,8.10
2022-10-11T01:09:15.967Z,7.40
2022-10-11T01:11:44.098Z,7.40
2022-10-11T01:14:29.094Z,5.00
2022-10-11T01:17:32.929Z,5.00
2022-10-11T01:20:26.492Z,5.60
2022-10-11T01:23:11.945Z,6.70
2022-10-11T01:25:59.386Z,5.30
2022-10-11T01:28:48.021Z,6.30
2022-10-11T01:31:22.600Z,5.50
2022-10-11T01:33:59.171Z,5.60
2022-10-11T01:36:41.605Z,5.60
2022-10-11T01:39:31.921Z,6.90
2022-10-11T01:42:01.919Z,5.20
2022-10-11T01:44:29.111Z,6.20
2022-10-11T01:46:56.318Z,6.10
2022-10-11T01:49:22.974Z,7.30
2022-10-11T01:51:53.691Z,5.40
2022-10-11T01:55:08.640Z,5.40
2022-10-11T01:57:41.860Z,6.10
2022-10-11T02:00:17.674Z,5.10
2022-10-11T02:02:50.228Z,6.50
2022-10-11T02:05:43.247Z,5.30
2022-10-11T02:08:25.701Z,5.70
2022-10-11T02:11:06.870Z,5.40
2022-10-11T02:13:41.389Z,5.30
2022-10-11T02:16:13.051Z,5.00
2022-10-11T02:18:46.739Z,5.80
2022-10-11T02:21:17.015Z,5.60
2022-10-11T02:23:48.431Z,4.40
2022-10-11T02:26:16.515Z,7.50
2022-10-11T02:28:46.270Z,7.90
2022-10-11T02:31:14.647Z,5.50
2022-10-11T02:33:50.604Z,4.00
2022-10-11T02:36:26.696Z,5.20
2022-10-11T02:38:59.179Z,5.50
2022-10-11T02:41:31.277Z,4.80
2022-10-11T02:44:05.240Z,5.70
2022-10-11T02:46:32.649Z,4.60
2022-10-11T02:49:00.667Z,5.10
2022-10-11T02:51:30.406Z,5.40
2022-10-11T02:53:57.322Z,3.20
2022-10-11T02:56:23.926Z,4.20
2022-10-11T02:58:50.540Z,5.20
2022-10-11T03:01:17.219Z,7.20
2022-10-11T03:03:43.866Z,5.70
2022-10-11T03:06:10.546Z,5.30
2022-10-11T03:08:37.206Z,5.80
2022-10-11T03:11:03.923Z,5.60
2022-10-11T03:13:30.480Z,5.00
2022-10-11T03:16:03.186Z,5.10
2022-10-11T03:18:31.078Z,5.90
2022-10-11T03:20:57.769Z,5.60
2022-10-11T03:23:24.380Z,6.00
2022-10-11T03:25:52.174Z,4.60
2022-10-11T03:28:20.020Z,4.40
2022-10-11T03:30:48.540Z,8.40
2022-10-11T03:33:15.601Z,5.70
2022-10-11T03:35:47.633Z,5.30
2022-10-11T03:38:19.970Z,6.00
2022-10-11T03:40:46.799Z,6.30
2022-10-11T03:43:13.882Z,5.60
2022-10-11T03:45:43.845Z,5.60
2022-10-11T03:48:11.348Z,5.20
2022-10-11T03:50:38.320Z,5.30
2022-10-11T03:53:06.822Z,7.40
2022-10-11T03:55:33.552Z,6.50
2022-10-11T03:58:00.308Z,6.40
2022-10-11T04:00:26.988Z,5.90
2022-10-11T04:02:53.726Z,8.10
2022-10-11T04:05:20.372Z,5.60
2022-10-11T04:07:47.034Z,5.90
2022-10-11T04:10:14.397Z,6.80
2022-10-11T04:12:41.128Z,5.80
2022-10-11T04:15:08.317Z,7.50
2022-10-11T04:17:34.957Z,4.30
2022-10-11T04:20:01.731Z,4.60
2022-10-11T04:22:28.297Z,5.70
2022-10-11T04:24:54.904Z,5.90
2022-10-11T04:27:21.992Z,4.70
2022-10-11T04:29:48.570Z,5.40
2022-10-11T04:32:15.238Z,5.70
2022-10-11T04:34:41.960Z,5.90
2022-10-11T04:37:08.552Z,5.70
2022-10-11T04:39:35.157Z,5.70
2022-10-11T04:42:01.748Z,7.80
2022-10-11T04:44:28.554Z,6.20
2022-10-11T04:46:55.184Z,5.30
2022-10-11T04:49:21.902Z,5.30
2022-10-11T04:51:48.481Z,5.20
2022-10-11T04:54:15.250Z,5.10
2022-10-11T04:56:41.873Z,6.50
2022-10-11T04:59:08.487Z,6.40
2022-10-11T05:01:35.412Z,5.60
2022-10-11T05:04:02.116Z,6.00
2022-10-11T05:06:28.728Z,5.60
2022-10-11T05:08:55.401Z,8.40
2022-10-11T05:11:22.416Z,6.60
2022-10-11T05:13:48.971Z,6.70
2022-10-11T05:16:16.726Z,5.80
2022-10-11T05:18:44.025Z,4.90
2022-10-11T05:21:19.920Z,4.70
2022-10-11T05:23:47.959Z,7.30
2022-10-11T05:26:15.583Z,5.10
2022-10-11T05:28:42.615Z,5.50
2022-10-11T05:31:09.655Z,4.70
2022-10-11T05:33:36.537Z,5.70
2022-10-11T05:36:04.125Z,6.30
2022-10-11T05:38:31.062Z,7.40
2022-10-11T05:41:05.387Z,8.40
2022-10-11T05:43:32.414Z,8.10
2022-10-11T05:45:59.726Z,9.30
2022-10-11T05:48:26.988Z,7.20
2022-10-11T05:50:58.559Z,9.20
2022-10-11T05:53:25.150Z,7.60
2022-10-11T05:55:51.827Z,6.50
2022-10-11T05:58:18.795Z,7.30
2022-10-11T06:00:45.407Z,10.50
2022-10-11T06:03:13.557Z,11.70
2022-10-11T06:05:40.387Z,8.90
2022-10-11T06:08:08.773Z,8.40
2022-10-11T06:10:37.349Z,11.20
2022-10-11T06:13:04.598Z,10.40
2022-10-11T06:15:31.285Z,8.60
2022-10-11T06:17:59.325Z,8.90
2022-10-11T06:20:27.065Z,9.50
2022-10-11T06:22:53.749Z,10.10
2022-10-11T06:25:20.355Z,9.00
2022-10-11T06:27:46.949Z,8.10
2022-10-11T06:30:14.197Z,10.80
2022-10-11T06:32:40.786Z,8.90
2022-10-11T06:35:07.862Z,9.70
2022-10-11T06:37:34.444Z,10.20
2022-10-11T06:40:01.182Z,9.00
2022-10-11T06:42:27.780Z,11.00
2022-10-11T06:44:54.792Z,12.80
2022-10-11T06:47:21.336Z,12.70
2022-10-11T06:49:47.971Z,10.00
2022-10-11T06:52:14.565Z,10.90
2022-10-11T06:54:44.742Z,12.50
2022-10-11T06:57:12.096Z,8.20
2022-10-11T06:59:38.729Z,9.70
2022-10-11T07:02:05.360Z,13.40
2022-10-11T07:04:34.014Z,15.90
2022-10-11T07:07:01.216Z,19.40
2022-10-11T07:09:27.804Z,8.60
2022-10-11T07:11:54.524Z,8.30
2022-10-11T07:14:21.135Z,11.50
2022-10-11T07:16:47.782Z,9.10
2022-10-11T07:19:14.566Z,11.10
2022-10-11T07:21:41.103Z,9.30
2022-10-11T07:24:07.829Z,9.90
2022-10-11T07:26:38.809Z,8.90
2022-10-11T07:29:08.369Z,9.10
2022-10-11T07:31:40.187Z,9.90
2022-10-11T07:34:07.135Z,8.20
2022-10-11T07:36:33.978Z,7.80
2022-10-11T07:39:00.679Z,8.30
2022-10-11T07:41:27.387Z,9.90
2022-10-11T07:43:55.116Z,8.90
2022-10-11T07:46:22.017Z,9.40
2022-10-11T07:48:50.351Z,10.30
2022-10-11T07:51:22.202Z,7.30
2022-10-11T07:53:51.159Z,13.70
2022-10-11T07:56:23.324Z,8.60
2022-10-11T07:58:54.564Z,8.80
2022-10-11T08:01:21.789Z,8.20
2022-10-11T08:03:49.704Z,10.30
2022-10-11T08:06:18.498Z,8.50
2022-10-11T08:08:45.217Z,7.50
2022-10-11T08:11:20.768Z,9.00
2022-10-11T08:13:47.360Z,8.50
2022-10-11T08:16:14.321Z,11.50
2022-10-11T08:18:41.001Z,9.40
2022-10-11T08:21:13.699Z,9.80
2022-10-11T08:23:40.440Z,8.10
2022-10-11T08:26:07.788Z,8.50
2022-10-11T08:28:34.965Z,6.50
2022-10-11T08:31:02.274Z,10.00
2022-10-11T08:33:28.889Z,9.80
2022-10-11T08:35:57.281Z,10.10
2022-10-11T08:38:24.169Z,9.80
2022-10-11T08:40:55.105Z,6.30
2022-10-11T08:43:54.297Z,8.00
2022-10-11T08:46:30.917Z,10.40
2022-10-11T08:48:58.633Z,11.70
2022-10-11T08:51:30.923Z,9.60
2022-10-11T08:54:07.133Z,7.90
2022-10-11T08:56:37.802Z,8.20
2022-10-11T09:01:52.742Z,8.80
2022-10-11T09:04:19.651Z,11.70
2022-10-11T09:06:52.207Z,9.50
2022-10-11T09:09:28.000Z,11.10
2022-10-11T09:12:22.796Z,10.90
2022-10-11T09:15:17.909Z,9.00
2022-10-11T09:18:09.850Z,12.30
2022-10-11T09:20:52.447Z,10.70
2022-10-11T09:23:59.461Z,11.00
2022-10-11T09:26:31.551Z,10.20
2022-10-11T09:29:13.423Z,11.30
2022-10-11T09:31:42.076Z,9.20
2022-10-11T09:34:12.664Z,10.30
2022-10-11T09:36:45.254Z,10.40
2022-10-11T09:39:17.826Z,7.80
2022-10-11T09:41:54.321Z,10.50
2022-10-11T09:44:27.286Z,9.10
2022-10-11T09:46:55.788Z,11.40
2022-10-11T09:49:29.875Z,11.60
2022-10-11T09:52:00.384Z,9.40
2022-10-11T09:54:49.080Z,11.80
2022-10-11T09:57:39.975Z,12.20
2022-10-11T10:00:08.716Z,15.10
2022-10-11T10:02:47.637Z,7.50
2022-10-11T10:05:23.554Z,11.50
2022-10-11T10:08:09.112Z,9.90
2022-10-11T10:10:55.797Z,9.70
2022-10-11T10:13:29.878Z,13.20
2022-10-11T10:16:01.346Z,11.30
2022-10-11T10:18:37.735Z,11.40
2022-10-11T10:21:09.326Z,14.00
2022-10-11T10:23:37.471Z,13.70
2022-10-11T10:26:20.849Z,14.40
2022-10-11T10:29:17.199Z,16.90
2022-10-11T10:32:13.521Z,14.10
2022-10-11T10:35:03.408Z,13.00
2022-10-11T10:37:36.356Z,13.40
2022-10-11T10:40:08.510Z,13.00
2022-10-11T10:42:35.415Z,11.50
2022-10-11T10:45:02.640Z,12.00
2022-10-11T10:47:42.725Z,13.10
2022-10-11T10:50:19.291Z,12.20
2022-10-11T10:53:18.131Z,12.00
2022-10-11T10:55:50.588Z,11.30
2022-10-11T10:58:20.178Z,14.80
2022-10-11T11:00:52.231Z,9.80
2022-10-11T11:03:29.146Z,14.50
2022-10-11T11:06:07.092Z,13.10
2022-10-11T11:08:46.741Z,14.00
2022-10-11T11:11:19.391Z,14.20
2022-10-11T11:14:21.722Z,13.80
2022-10-11T11:17:06.010Z,16.10
2022-10-11T11:20:10.573Z,15.20
2022-10-11T11:22:47.820Z,20.40
2022-10-11T11:25:31.442Z,19.90
2022-10-11T11:28:28.240Z,16.00
2022-10-11T11:31:16.554Z,20.70
2022-10-11T11:33:52.192Z,17.80
2022-10-11T11:36:27.724Z,18.00
2022-10-11T11:39:02.369Z,13.50
2022-10-11T11:41:37.329Z,11.60
2022-10-11T11:44:12.238Z,17.30
2022-10-11T11:46:44.154Z,15.50
2022-10-11T11:49:19.298Z,13.30
2022-10-11T11:51:47.890Z,14.20
2022-10-11T11:54:44.705Z,12.60
2022-10-11T11:57:31.525Z,12.10
2022-10-11T12:00:17.452Z,14.60
2022-10-11T12:02:55.341Z,10.70
2022-10-11T12:05:33.728Z,11.70
2022-10-11T12:08:24.264Z,14.20
2022-10-11T12:10:50.786Z,12.50
2022-10-11T12:13:32.419Z,14.60
2022-10-11T12:16:14.453Z,13.80
2022-10-11T12:18:55.184Z,17.40
2022-10-11T12:21:31.135Z,18.30
2022-10-11T12:24:20.093Z,18.90
2022-10-11T12:26:48.732Z,14.70
2022-10-11T12:29:18.420Z,16.10
2022-10-11T12:31:50.858Z,14.30
2022-10-11T12:34:34.399Z,12.10
2022-10-11T12:37:21.334Z,15.90
2022-10-11T12:39:52.990Z,13.90
2022-10-11T12:42:27.290Z,15.20
2022-10-11T12:45:12.813Z,13.40
2022-10-11T12:47:46.977Z,10.50
2022-10-11T12:50:39.778Z,13.00
2022-10-11T12:53:21.514Z,16.80
2022-10-11T12:56:33.278Z,17.80
2022-10-11T13:01:49.134Z,11.70
2022-10-11T13:04:19.160Z,15.20
2022-10-11T13:06:50.536Z,10.50
2022-10-11T13:09:39.379Z,13.30
2022-10-11T13:12:09.000Z,9.60
2022-10-11T13:14:42.510Z,9.20
2022-10-11T13:17:26.600Z,9.60
2022-10-11T13:20:02.469Z,10.50
2022-10-11T13:22:29.056Z,12.20
2022-10-11T13:24:59.647Z,12.60
2022-10-11T13:27:27.581Z,12.90
2022-10-11T13:29:59.456Z,13.00
2022-10-11T13:32:29.884Z,12.10
2022-10-11T13:35:04.777Z,11.70
2022-10-11T13:37:42.417Z,10.40
2022-10-11T13:40:21.124Z,9.50
2022-10-11T13:42:50.292Z,11.30
2022-10-11T13:45:23.216Z,8.90
2022-10-11T13:47:51.495Z,8.50
2022-10-11T13:50:35.288Z,9.90
2022-10-11T13:53:07.880Z,11.90
2022-10-11T13:55:47.605Z,11.00
2022-10-11T13:58:24.664Z,12.80
2022-10-11T14:00:58.430Z,13.00
2022-10-11T14:03:37.550Z,14.10
2022-10-11T14:06:04.557Z,13.20
2022-10-11T14:08:37.973Z,11.00
2022-10-11T14:11:06.979Z,8.80
2022-10-11T14:13:39.435Z,9.90
2022-10-11T14:16:21.344Z,10.40
2022-10-11T14:19:02.307Z,11.60
2022-10-11T14:21:48.713Z,10.50
2022-10-11T14:24:17.909Z,11.20
2022-10-11T14:26:48.312Z,12.70
2022-10-11T14:29:23.723Z,14.20
2022-10-11T14:31:51.144Z,12.50
2022-10-11T14:34:23.538Z,15.00
2022-10-11T14:36:51.582Z,15.30
2022-10-11T14:39:22.489Z,13.20
2022-10-11T14:41:53.088Z,13.40
2022-10-11T14:44:22.679Z,14.50
2022-10-11T14:46:51.877Z,15.10
2022-10-11T14:49:24.637Z,14.60
2022-10-11T14:51:52.577Z,17.00
2022-10-11T14:54:25.017Z,16.90
2022-10-11T14:56:53.557Z,16.80
2022-10-11T14:59:24.496Z,15.50
2022-10-11T15:01:53.557Z,15.30
2022-10-11T15:04:21.959Z,18.00
2022-10-11T15:06:49.187Z,13.70
2022-10-11T15:09:17.236Z,16.50
2022-10-11T15:11:43.906Z,14.80
2022-10-11T15:14:10.544Z,16.30
2022-10-11T15:16:37.272Z,14.30
2022-10-11T15:19:04.065Z,15.90
2022-10-11T15:21:31.226Z,15.10
2022-10-11T15:23:57.923Z,14.00
2022-10-11T15:26:27.342Z,17.10
2022-10-11T15:28:56.345Z,13.80
2022-10-11T15:31:24.119Z,12.80
2022-10-11T15:33:51.582Z,16.70
2022-10-11T15:36:21.722Z,14.80
2022-10-11T15:38:49.276Z,17.50
2022-10-11T15:41:18.916Z,15.00
2022-10-11T15:43:47.442Z,15.80
2022-10-11T15:46:25.120Z,14.50
2022-10-11T15:48:52.364Z,14.90
2022-10-11T15:51:19.451Z,14.70
2022-10-11T15:53:46.491Z,14.40
2022-10-11T15:56:17.094Z,15.30
2022-10-11T15:58:44.125Z,14.00
2022-10-11T16:01:20.070Z,14.70
2022-10-11T16:03:48.785Z,13.70
2022-10-11T16:06:15.991Z,16.10
2022-10-11T16:08:42.744Z,14.80
2022-10-11T16:11:10.429Z,14.70
2022-10-11T16:13:38.077Z,16.00
2022-10-11T16:16:07.833Z,20.00
2022-10-11T16:18:35.861Z,19.10
2022-10-11T16:21:10.497Z,21.00
2022-10-11T16:23:37.895Z,21.40
2022-10-11T16:26:07.685Z,24.50
2022-10-11T16:28:34.907Z,24.60
2022-10-11T16:31:08.037Z,21.20
2022-10-11T16:33:34.679Z,18.70
2022-10-11T16:36:21.219Z,19.50
2022-10-11T16:38:47.920Z,20.00
2022-10-11T16:41:14.509Z,24.20
2022-10-11T16:43:41.109Z,24.10
2022-10-11T16:46:08.103Z,26.10
2022-10-11T16:48:35.066Z,29.00
2022-10-11T16:51:06.705Z,27.80
2022-10-11T16:53:34.902Z,35.90
2022-10-11T16:56:09.252Z,32.70
2022-10-11T16:58:36.742Z,33.10
2022-10-11T17:01:08.815Z,32.60
2022-10-11T17:03:35.542Z,42.20
2022-10-11T17:06:02.565Z,41.60
2022-10-11T17:08:29.443Z,46.10
2022-10-11T17:10:57.680Z,44.60
2022-10-11T17:13:24.836Z,47.40
2022-10-11T17:15:51.509Z,49.40
2022-10-11T17:18:18.171Z,58.70
2022-10-11T17:20:44.845Z,57.20
2022-10-11T17:23:11.923Z,50.70
2022-10-11T17:25:44.257Z,43.90
2022-10-11T17:28:11.180Z,44.10
2022-10-11T17:30:41.010Z,39.70
2022-10-11T17:33:08.035Z,37.00
2022-10-11T17:35:35.000Z,43.30
2022-10-11T17:38:05.965Z,46.60
2022-10-11T17:40:33.972Z,47.90
2022-10-11T17:43:00.664Z,38.90
2022-10-11T17:45:27.283Z,44.40
2022-10-11T17:47:54.011Z,36.40
2022-10-11T17:50:20.719Z,36.10
2022-10-11T17:52:47.508Z,34.50
2022-10-11T17:55:14.205Z,52.40
2022-10-11T17:57:40.847Z,39.30
2022-10-11T18:00:08.208Z,38.40
2022-10-11T18:02:34.882Z,31.20
2022-10-11T18:05:01.516Z,37.70
2022-10-11T18:07:28.222Z,36.50
2022-10-11T18:09:54.898Z,41.40
2022-10-11T18:12:21.549Z,41.60
2022-10-11T18:14:48.169Z,37.00
2022-10-11T18:17:14.861Z,30.80
2022-10-11T18:19:41.560Z,27.80
2022-10-11T18:22:08.491Z,29.50
2022-10-11T18:24:35.143Z,35.60
2022-10-11T18:27:01.810Z,37.00
2022-10-11T18:29:29.874Z,34.80
2022-10-11T18:31:56.587Z,27.20
2022-10-11T18:34:23.288Z,32.10
2022-10-11T18:36:49.947Z,35.30
2022-10-11T18:39:16.603Z,33.40
2022-10-11T18:41:44.741Z,45.40
2022-10-11T18:44:16.461Z,34.70
2022-10-11T18:46:44.321Z,32.20
2022-10-11T18:49:11.729Z,30.90
2022-10-11T18:51:41.308Z,31.20
2022-10-11T18:54:11.417Z,27.50
2022-10-11T18:56:39.751Z,31.30
2022-10-11T18:59:08.612Z,40.20
2022-10-11T19:01:38.807Z,34.60
2022-10-11T19:04:07.502Z,32.80
2022-10-11T19:06:37.912Z,29.70
2022-10-11T19:09:17.916Z,32.00
2022-10-11T19:11:44.627Z,27.70
2022-10-11T19:14:15.343Z,30.50
2022-10-11T19:16:45.682Z,34.80
2022-10-11T19:19:12.962Z,35.40
2022-10-11T19:21:39.889Z,35.10
2022-10-11T19:24:07.150Z,30.30
2022-10-11T19:26:37.500Z,29.70
2022-10-11T19:29:14.913Z,28.80
2022-10-11T19:31:44.825Z,33.20
2022-10-11T19:34:12.213Z,37.20
2022-10-11T19:36:41.984Z,36.60
2022-10-11T19:39:12.340Z,37.00
2022-10-11T19:41:39.031Z,31.70
2022-10-11T19:44:06.215Z,29.10
2022-10-11T19:49:24.107Z,32.30
2022-10-11T19:51:51.551Z,37.40
2022-10-11T19:54:18.225Z,38.60
2022-10-11T19:56:44.896Z,32.40
2022-10-11T19:59:13.019Z,30.60
2022-10-11T20:01:40.904Z,30.10
2022-10-11T20:04:22.630Z,37.40
2022-10-11T20:06:57.497Z,38.00
2022-10-11T20:09:31.419Z,41.40
2022-10-11T20:11:59.019Z,44.40
2022-10-11T20:14:25.920Z,37.40
2022-10-11T20:16:52.853Z,34.60
2022-10-11T20:19:19.582Z,30.70
2022-10-11T20:21:48.645Z,31.70
2022-10-11T20:24:15.220Z,38.10
2022-10-11T20:26:41.846Z,40.10
2022-10-11T20:29:08.542Z,34.70
2022-10-11T20:31:40.922Z,32.90
2022-10-11T20:34:08.069Z,33.10
2022-10-11T20:36:36.419Z,34.90
2022-10-11T20:39:05.111Z,34.20
2022-10-11T20:41:34.381Z,41.20
2022-10-11T20:44:02.261Z,36.80
2022-10-11T20:46:31.671Z,37.10
2022-10-11T20:49:03.902Z,34.90
2022-10-11T20:51:33.005Z,30.10
2022-10-11T20:54:01.051Z,29.60
2022-10-11T20:56:28.493Z,27.60
2022-10-11T20:58:56.388Z,37.20
2022-10-11T21:01:29.421Z,36.10
2022-10-11T21:04:01.394Z,32.70
2022-10-11T21:06:29.763Z,29.00
2022-10-11T21:08:57.013Z,31.20
2022-10-11T21:11:28.208Z,28.50
2022-10-11T21:13:56.932Z,32.50
2022-10-11T21:16:24.711Z,38.00
2022-10-11T21:18:53.015Z,33.10
2022-10-11T21:21:20.313Z,30.90
2022-10-11T21:23:47.623Z,32.70
2022-10-11T21:26:18.395Z,29.00
2022-10-11T21:28:46.895Z,30.60
2022-10-11T21:31:17.013Z,29.90
2022-10-11T21:33:44.790Z,32.20
2022-10-11T21:36:14.456Z,32.60
2022-10-11T21:38:41.281Z,29.70
2022-10-11T21:41:10.866Z,26.50
2022-10-11T21:43:38.484Z,28.20
2022-10-11T21:46:23.800Z,25.40
2022-10-11T21:48:54.002Z,30.30
2022-10-11T21:51:24.799Z,29.10
2022-10-11T21:53:51.588Z,26.00
2022-10-11T21:56:18.793Z,22.70
2022-10-11T21:58:49.595Z,23.20
2022-10-11T22:01:17.870Z,23.50
2022-10-11T22:03:45.358Z,27.70
2022-10-11T22:06:12.160Z,27.90
2022-10-11T22:08:39.543Z,25.70
2022-10-11T22:11:06.692Z,21.80
2022-10-11T22:13:34.556Z,20.30
2022-10-11T22:16:03.702Z,21.70
2022-10-11T22:18:33.487Z,21.80
2022-10-11T22:21:18.398Z,26.20
2022-10-11T22:23:47.339Z,24.60
2022-10-11T22:26:17.119Z,21.70
2022-10-11T22:28:46.625Z,19.30
2022-10-11T22:31:14.219Z,21.40
2022-10-11T22:33:42.047Z,17.80
2022-10-11T22:36:10.427Z,18.50
2022-10-11T22:38:38.335Z,22.50
2022-10-11T22:41:05.363Z,25.50
2022-10-11T22:43:32.058Z,19.30
2022-10-11T22:45:58.901Z,17.90
2022-10-11T22:48:26.158Z,15.30
2022-10-11T22:50:53.229Z,16.20
2022-10-11T22:53:20.117Z,17.00
2022-10-11T22:55:47.415Z,21.80
2022-10-11T22:58:14.284Z,21.80
2022-10-11T23:00:40.872Z,18.70
2022-10-11T23:03:07.538Z,18.10
2022-10-11T23:05:35.222Z,18.20
2022-10-11T23:08:01.819Z,16.70
2022-10-11T23:10:28.407Z,15.40
2022-10-11T23:12:54.985Z,21.40
2022-10-11T23:15:21.564Z,17.90
2022-10-11T23:17:48.270Z,19.60
2022-10-11T23:20:15.024Z,14.70
2022-10-11T23:22:41.586Z,18.20
2022-10-11T23:25:08.733Z,14.00
2022-10-11T23:27:35.548Z,12.20
2022-10-11T23:30:02.288Z,19.80
2022-10-11T23:32:28.921Z,19.70
2022-10-11T23:34:55.677Z,17.90
2022-10-11T23:37:22.290Z,16.10
2022-10-11T23:39:48.855Z,11.30
2022-10-11T23:42:15.459Z,15.30
2022-10-11T23:44:42.048Z,13.60
2022-10-11T23:47:08.702Z,16.30
2022-10-11T23:49:35.272Z,17.20
2022-10-11T23:52:01.875Z,16.00
2022-10-11T23:54:28.493Z,15.80
2022-10-11T23:56:55.080Z,14.80
2022-10-11T23:59:21.630Z,13.30
